createdAt,value
2019-03-27T00:00:42.919Z,5.90
2019-03-27T00:02:18.783Z,5.90
2019-03-27T00:03:54.584Z,5.80
2019-03-27T00:05:30.213Z,5.80
2019-03-27T00:07:05.834Z,5.80
2019-03-27T00:08:41.787Z,5.70
2019-03-27T00:10:17.431Z,5.70
2019-03-27T00:11:53.296Z,5.70
2019-03-27T06:29:32.356Z,5.70
2019-03-27T07:42:34.051Z,7.30
2019-03-27T07:44:09.982Z,9.00
2019-03-27T07:45:45.666Z,9.00
2019-03-27T08:33:22.962Z,9.20
2019-03-27T08:34:58.561Z,8.30
2019-03-27T08:36:34.446Z,8.40
2019-03-27T08:38:10.313Z,8.60
2019-03-27T08:39:45.950Z,8.80
2019-03-27T08:41:21.645Z,8.90
2019-03-27T08:42:57.767Z,9.00
2019-03-27T09:29:18.801Z,9.00
2019-03-27T09:30:54.784Z,9.20
2019-03-27T09:32:30.806Z,9.20
2019-03-27T09:34:06.512Z,9.30
2019-03-27T09:35:42.143Z,9.40
2019-03-27T09:37:17.784Z,9.70
2019-03-27T09:38:53.972Z,9.80
2019-03-27T09:40:29.967Z,9.90
2019-03-27T09:42:05.734Z,9.90
2019-03-27T09:43:41.596Z,9.80
2019-03-27T09:45:18.121Z,9.70
2019-03-27T09:46:54.187Z,9.60
2019-03-27T09:48:29.803Z,9.40
2019-03-27T09:50:06.948Z,9.50
2019-03-27T09:51:43.085Z,9.60
2019-03-27T09:53:19.195Z,9.80
2019-03-27T09:54:54.879Z,10.10
2019-03-27T09:56:30.500Z,10.30
2019-03-27T09:58:06.211Z,10.60
2019-03-27T09:59:42.166Z,10.80
2019-03-27T10:01:18.027Z,10.90
2019-03-27T10:02:57.173Z,10.80
2019-03-27T10:04:31.661Z,10.60
2019-03-27T10:06:07.793Z,10.40
2019-03-27T10:07:43.789Z,10.20
2019-03-27T10:09:19.392Z,10.00
2019-03-27T10:10:55.111Z,9.80
2019-03-27T10:12:30.724Z,9.70
2019-03-27T10:14:06.498Z,9.50
2019-03-27T10:15:42.265Z,9.50
2019-03-27T10:17:17.889Z,9.40
2019-03-27T10:18:53.522Z,9.20
2019-03-27T10:20:29.596Z,9.20
2019-03-27T10:22:05.379Z,9.10
2019-03-27T10:23:41.097Z,9.10
2019-03-27T10:25:16.888Z,9.00
2019-03-27T10:26:52.630Z,9.10
2019-03-27T10:28:28.510Z,9.20
2019-03-27T10:30:04.596Z,9.40
2019-03-27T10:31:40.585Z,9.60
2019-03-27T10:33:16.232Z,9.70
2019-03-27T10:34:51.923Z,9.70
2019-03-27T10:36:27.580Z,9.80
2019-03-27T10:38:03.515Z,9.80
2019-03-27T10:39:39.225Z,9.80
2019-03-27T10:41:15.115Z,10.00
2019-03-27T10:42:51.006Z,10.00
2019-03-27T10:44:26.615Z,10.10
2019-03-27T10:46:02.536Z,10.10
2019-03-27T10:47:38.184Z,10.00
2019-03-27T10:49:14.147Z,9.90
2019-03-27T10:50:50.282Z,9.80
2019-03-27T10:52:26.540Z,9.90
2019-03-27T10:54:02.222Z,10.10
2019-03-27T10:55:38.262Z,10.40
2019-03-27T21:28:25.428Z,10.90
2019-03-27T21:30:01.024Z,8.40
2019-03-27T21:31:36.637Z,8.30
2019-03-27T21:33:12.248Z,8.30
2019-03-27T21:34:47.859Z,8.20
2019-03-27T21:36:23.448Z,8.20
2019-03-27T21:37:59.098Z,8.10
2019-03-27T21:39:34.956Z,8.10
2019-03-27T21:41:10.883Z,8.10
2019-03-27T21:47:31.983Z,8.00
2019-03-27T21:49:07.600Z,8.00
2019-03-27T21:50:43.281Z,8.00
2019-03-27T21:52:19.198Z,7.90
2019-03-27T21:53:54.803Z,7.90
2019-03-27T21:55:42.193Z,7.90
2019-03-27T21:57:08.358Z,7.90
2019-03-27T21:58:44.332Z,7.90
2019-03-27T22:00:38.422Z,7.80
2019-03-27T22:02:14.139Z,7.90
2019-03-27T22:03:49.753Z,7.90
2019-03-27T22:05:25.648Z,7.90
2019-03-27T22:07:01.300Z,7.80
2019-03-27T22:08:37.807Z,7.80
2019-03-27T22:10:13.901Z,7.80
2019-03-27T22:11:49.849Z,7.80
2019-03-27T22:13:25.450Z,7.80
2019-03-27T22:15:01.356Z,7.70
2019-03-27T22:16:36.936Z,7.70
2019-03-27T22:18:12.857Z,7.80
2019-03-27T22:19:48.943Z,7.80
2019-03-27T22:21:24.820Z,7.70
2019-03-27T22:23:00.761Z,7.70
2019-03-27T22:24:36.369Z,7.70
2019-03-27T22:26:11.986Z,7.70
2019-03-27T22:27:48.154Z,7.70
2019-03-27T22:29:23.922Z,7.70
2019-03-27T22:30:59.791Z,7.70
2019-03-27T22:32:35.399Z,7.70
2019-03-27T22:34:11.611Z,7.70
2019-03-27T22:35:47.582Z,7.70
2019-03-27T22:37:23.498Z,7.70
2019-03-27T22:42:09.328Z,7.70
2019-03-27T22:43:44.969Z,7.80
2019-03-27T22:46:55.771Z,7.80
2019-03-27T22:48:31.853Z,7.80
2019-03-27T22:50:08.151Z,7.80
2019-03-27T22:51:44.378Z,7.80
2019-03-27T22:53:19.981Z,7.80
2019-03-27T22:54:55.564Z,7.80
2019-03-27T22:56:31.457Z,7.80
2019-03-27T22:58:07.148Z,7.80
2019-03-27T22:59:42.739Z,7.80
2019-03-27T23:02:54.100Z,7.80
2019-03-27T23:06:05.191Z,7.80
2019-03-27T23:09:16.125Z,7.80
2019-03-27T23:10:51.759Z,7.90
2019-03-27T23:12:27.604Z,7.90
2019-03-27T23:14:03.201Z,7.90
2019-03-27T23:15:39.105Z,7.90
2019-03-27T23:17:14.850Z,7.90
2019-03-27T23:18:50.463Z,7.90
2019-03-27T23:20:26.108Z,7.90
2019-03-27T23:22:01.742Z,7.90
2019-03-27T23:23:38.159Z,7.90
2019-03-27T23:25:13.923Z,7.90
2019-03-27T23:26:49.678Z,7.90
2019-03-27T23:28:25.668Z,7.90
2019-03-27T23:30:02.012Z,7.90
2019-03-27T23:31:37.898Z,7.90
2019-03-27T23:33:15.046Z,7.90
2019-03-27T23:34:50.923Z,7.90
2019-03-27T23:36:26.556Z,7.90
2019-03-27T23:38:02.197Z,7.90
2019-03-27T23:39:38.400Z,7.90
2019-03-27T23:41:14.352Z,7.90
2019-03-27T23:42:49.943Z,7.90
2019-03-27T23:44:25.581Z,7.90
2019-03-27T23:46:01.963Z,7.80
2019-03-27T23:47:38.022Z,7.90
2019-03-27T23:49:13.664Z,7.90
2019-03-27T23:50:49.616Z,7.90
2019-03-27T23:52:25.342Z,7.90
2019-03-27T23:54:00.973Z,7.90
2019-03-27T23:55:36.608Z,7.90
2019-03-27T23:59:07.629Z,8.00
